Huvudsida
METAR-TAF:

METAR-TAF

Flygplatser :

Yazd flygplats

Yazd, Iran

latitud: 31-54N, longitud: 054-24E, höjd: 1238 m

Aktuellt väderrapport

Denna rapport gjordes för 25 minuter sedan, klockan 13:50 UTC
Vind 4 kt från nord/nordost
Temperatur 40°C
Fuktighet 10%
Tryck 1013 hPa
Sikt 10 km eller mer
Få moln på en höjd av 4500 ft

METAR: OIYY 241350Z 02004KT 9999 FEW045 40/03 Q1013

Tid: 18:45 (14:15 UTC)


TAF: saknas

Aktuella väderrapporter och prognoser från 4000 flygplatser (METAR- och TAF-rapporter).

De tillgängliga stationerna syns som gula och röda prickar på kartan.

För musen över prickarna för att se namnen på stationerna.

Klicka sedan för att få väderrapporter och prognoser.

För att ändra kartan: Klicka på de gröna knapparna med ett svart kors på för att zooma in; den gröna knappen med ett streck på för att zooma ut; eller på de gröna pilarna för angränsande kartor.


METAR-TAF: